Time;durP1;ratioP1;P1;durP2;ratioP2;P2;SDS_P1;SDS_P2;PMS_P1;PMS_P2;Temp;Humidity;BMP_temperature;BMP_pressure;BME280_temperature;BME280_humidity;BME280_pressure;Samples;Min_cycle;Max_cycle;Signal;HPM_P1;HPM_P2
2023/12/02 00:01:14;;;;;;;9.55;6.82;;;17.20;99.90;;;;;;4596531;19;20411;-79
2023/12/02 00:02:49;;;;;;;10.52;7.10;;;17.20;99.90;;;;;;4595478;19;19999;-79
2023/12/02 00:04:23;;;;;;;8.82;6.57;;;17.20;99.90;;;;;;4596027;19;20058;-79
2023/12/02 00:05:58;;;;;;;8.77;6.50;;;17.10;99.90;;;;;;4594648;19;20078;-79
2023/12/02 00:07:33;;;;;;;9.02;6.35;;;17.10;99.90;;;;;;4596305;19;20035;-79
2023/12/02 00:09:07;;;;;;;9.18;6.85;;;17.20;99.90;;;;;;4596244;19;19999;-79
2023/12/02 00:10:42;;;;;;;7.93;5.90;;;17.10;99.90;;;;;;4596013;19;20006;-79
2023/12/02 00:12:17;;;;;;;9.77;6.32;;;17.10;99.90;;;;;;4595905;19;20002;-79
2023/12/02 00:13:52;;;;;;;8.73;5.95;;;17.10;99.90;;;;;;4594618;19;20403;-79
2023/12/02 00:15:28;;;;;;;9.30;6.20;;;17.10;99.90;;;;;;4595039;19;20010;-79
2023/12/02 00:17:02;;;;;;;8.52;5.65;;;17.10;99.90;;;;;;4594467;19;19995;-79
2023/12/02 00:18:36;;;;;;;8.55;6.15;;;17.10;99.90;;;;;;4595700;19;19999;-79
2023/12/02 00:20:12;;;;;;;10.00;6.50;;;17.10;99.90;;;;;;4595880;19;20011;-79
2023/12/02 00:21:46;;;;;;;9.50;6.47;;;17.20;99.90;;;;;;4595968;19;20021;-79
2023/12/02 00:23:21;;;;;;;10.25;6.72;;;17.20;99.90;;;;;;4594582;19;19999;-79
2023/12/02 00:24:56;;;;;;;9.43;6.57;;;17.20;99.90;;;;;;4596187;19;20018;-79
2023/12/02 00:26:30;;;;;;;9.50;6.32;;;17.20;99.90;;;;;;4594026;19;20002;-79
2023/12/02 00:28:04;;;;;;;8.63;5.78;;;17.20;99.90;;;;;;4595801;19;20010;-79
2023/12/02 00:29:40;;;;;;;7.88;5.82;;;17.20;99.90;;;;;;4595589;19;20425;-79
2023/12/02 00:31:14;;;;;;;8.57;5.97;;;17.20;99.90;;;;;;4595766;19;20302;-79
2023/12/02 00:32:48;;;;;;;9.43;6.05;;;17.20;99.90;;;;;;4595515;19;20006;-79
2023/12/02 00:34:23;;;;;;;9.02;5.80;;;17.20;99.90;;;;;;4595497;19;20025;-79
2023/12/02 00:35:57;;;;;;;9.02;6.47;;;17.20;99.90;;;;;;4594416;19;20011;-79
2023/12/02 00:37:31;;;;;;;8.82;6.25;;;17.20;99.90;;;;;;4595388;19;20009;-79
2023/12/02 00:39:06;;;;;;;9.30;6.30;;;17.20;99.90;;;;;;4595941;19;20539;-79
2023/12/02 00:40:43;;;;;;;10.13;6.68;;;17.20;99.90;;;;;;4595015;19;20426;-79
2023/12/02 00:42:18;;;;;;;8.25;6.20;;;17.20;99.90;;;;;;4593859;19;20421;-79
2023/12/02 00:43:53;;;;;;;10.63;6.75;;;17.20;99.90;;;;;;4593708;19;20002;-79
2023/12/02 00:45:29;;;;;;;9.73;6.43;;;17.20;99.90;;;;;;4594979;19;20034;-79
2023/12/02 00:47:04;;;;;;;8.75;5.97;;;17.20;99.90;;;;;;4595137;19;20102;-79
2023/12/02 00:48:39;;;;;;;8.68;6.10;;;17.20;99.90;;;;;;4595263;19;20014;-79
2023/12/02 00:50:14;;;;;;;9.25;5.47;;;17.20;99.90;;;;;;4595125;19;20454;-79
2023/12/02 00:51:48;;;;;;;8.88;6.40;;;17.20;99.90;;;;;;4595129;19;20019;-79
2023/12/02 00:53:23;;;;;;;7.95;5.20;;;17.20;99.90;;;;;;4595173;19;20003;-79
2023/12/02 00:54:57;;;;;;;7.65;6.00;;;17.20;99.90;;;;;;4594990;19;20030;-79
2023/12/02 00:56:31;;;;;;;7.00;4.85;;;17.20;99.90;;;;;;4593683;19;20025;-79
2023/12/02 00:58:07;;;;;;;8.60;5.80;;;17.20;99.90;;;;;;4595477;19;20218;-79
2023/12/02 00:59:41;;;;;;;9.10;5.75;;;17.20;99.90;;;;;;4594975;19;20009;-79
2023/12/02 01:10:32;;;;;;;8.05;5.63;;;17.20;99.90;;;;;;4560251;19;20058;-79
2023/12/02 01:12:09;;;;;;;7.80;5.25;;;17.20;99.90;;;;;;4595058;19;20048;-80
2023/12/02 01:13:42;;;;;;;7.72;5.32;;;17.20;99.90;;;;;;4594549;19;20002;-79
2023/12/02 01:15:17;;;;;;;7.70;5.57;;;17.20;99.90;;;;;;4593320;19;19999;-79
2023/12/02 01:16:52;;;;;;;9.27;6.00;;;17.20;99.90;;;;;;4593634;19;20471;-79
2023/12/02 01:18:28;;;;;;;6.70;5.13;;;17.20;99.90;;;;;;4594504;19;20428;-79
2023/12/02 01:20:01;;;;;;;7.80;5.65;;;17.20;99.90;;;;;;4594564;19;20005;-79
2023/12/02 01:21:38;;;;;;;7.38;5.22;;;17.30;99.90;;;;;;4594473;19;20007;-79
2023/12/02 01:23:12;;;;;;;8.50;5.78;;;17.30;99.90;;;;;;4593974;19;20002;-79
2023/12/02 01:24:45;;;;;;;7.78;5.75;;;17.30;99.90;;;;;;4594715;19;20025;-79
2023/12/02 01:26:20;;;;;;;8.27;6.10;;;17.30;99.90;;;;;;4594434;19;20310;-79
2023/12/02 01:27:54;;;;;;;8.82;6.03;;;17.30;99.90;;;;;;4594364;19;20017;-79
2023/12/02 01:29:28;;;;;;;7.05;5.60;;;17.30;99.90;;;;;;4594380;19;20206;-79
2023/12/02 01:31:03;;;;;;;7.93;5.75;;;17.30;99.90;;;;;;4593392;19;20458;-79
2023/12/02 01:32:37;;;;;;;7.43;5.25;;;17.30;99.90;;;;;;4592720;19;20017;-79
2023/12/02 01:34:11;;;;;;;7.80;5.40;;;17.20;99.90;;;;;;4593837;19;19998;-79
2023/12/02 01:35:46;;;;;;;7.85;5.45;;;17.20;99.90;;;;;;4594751;19;20025;-79
2023/12/02 01:37:20;;;;;;;7.90;5.70;;;17.20;99.90;;;;;;4594440;19;20436;-79
2023/12/02 01:38:55;;;;;;;8.50;4.90;;;17.20;99.90;;;;;;4594112;19;19999;-79
2023/12/02 01:40:30;;;;;;;8.20;5.22;;;17.20;99.90;;;;;;4594027;19;20006;-79
2023/12/02 01:42:04;;;;;;;6.82;4.95;;;17.20;99.90;;;;;;4594061;19;20417;-79
2023/12/02 01:43:39;;;;;;;8.18;5.10;;;17.30;99.90;;;;;;4592963;19;20033;-79
2023/12/02 01:45:15;;;;;;;7.38;5.10;;;17.20;99.90;;;;;;4594060;19;20007;-79
2023/12/02 01:46:49;;;;;;;6.75;4.93;;;17.30;99.90;;;;;;4592616;19;20325;-79
2023/12/02 01:48:26;;;;;;;7.90;5.30;;;17.20;99.90;;;;;;4593622;19;20018;-79
2023/12/02 01:50:01;;;;;;;7.93;5.47;;;17.30;99.90;;;;;;4593966;19;20010;-79
2023/12/02 01:51:35;;;;;;;7.57;5.50;;;17.30;99.90;;;;;;4592450;19;20434;-79
2023/12/02 01:53:10;;;;;;;6.43;4.90;;;17.20;99.90;;;;;;4593310;19;20425;-79
2023/12/02 01:54:45;;;;;;;7.30;5.40;;;17.30;99.90;;;;;;4593861;19;20383;-79
2023/12/02 01:56:19;;;;;;;7.15;5.10;;;17.30;99.90;;;;;;4594064;19;19998;-79
2023/12/02 01:57:53;;;;;;;8.68;5.57;;;17.30;99.90;;;;;;4593731;19;20014;-79
2023/12/02 01:59:30;;;;;;;7.00;5.25;;;17.30;99.90;;;;;;4593754;19;20014;-79
2023/12/02 02:01:04;;;;;;;8.05;5.28;;;17.30;99.90;;;;;;4593060;19;20014;-79
2023/12/02 02:02:39;;;;;;;7.70;5.60;;;17.30;99.90;;;;;;4593437;19;20338;-79
2023/12/02 02:04:13;;;;;;;7.68;5.05;;;17.30;99.90;;;;;;4593960;19;20012;-79
2023/12/02 02:05:47;;;;;;;7.45;5.13;;;17.30;99.90;;;;;;4592242;19;20040;-79
2023/12/02 02:07:22;;;;;;;7.50;5.18;;;17.30;99.90;;;;;;4593448;19;19999;-79
2023/12/02 02:08:57;;;;;;;6.20;4.75;;;17.30;99.90;;;;;;4593512;19;20010;-79
2023/12/02 02:10:31;;;;;;;8.63;6.00;;;17.30;99.90;;;;;;4592760;19;20022;-79
2023/12/02 02:12:07;;;;;;;9.98;6.32;;;17.30;99.90;;;;;;4592385;19;20117;-79
2023/12/02 02:13:42;;;;;;;8.43;6.57;;;17.30;99.90;;;;;;4592080;19;20010;-79
2023/12/02 02:15:16;;;;;;;10.60;6.93;;;17.40;99.90;;;;;;4592953;19;20306;-79
2023/12/02 02:16:52;;;;;;;8.15;5.93;;;17.40;99.90;;;;;;4593276;19;19999;-79
2023/12/02 02:18:27;;;;;;;7.95;5.25;;;17.30;99.90;;;;;;4591952;19;20515;-79
2023/12/02 02:20:01;;;;;;;8.05;5.15;;;17.30;99.90;;;;;;4592070;19;20027;-79
2023/12/02 02:21:34;;;;;;;7.60;5.20;;;17.30;99.90;;;;;;4590530;19;20010;-79
2023/12/02 02:23:12;;;;;;;7.15;4.70;;;17.30;99.90;;;;;;4592245;19;20006;-79
2023/12/02 02:24:46;;;;;;;6.60;4.85;;;17.30;99.90;;;;;;4593358;19;19998;-79
2023/12/02 02:26:20;;;;;;;7.97;5.40;;;17.30;99.90;;;;;;4593036;19;20003;-79
2023/12/02 02:27:56;;;;;;;6.30;4.75;;;17.40;99.90;;;;;;4591899;19;20026;-79
2023/12/02 02:29:30;;;;;;;6.78;4.63;;;17.30;99.90;;;;;;4592921;19;19998;-79
2023/12/02 02:31:05;;;;;;;7.55;5.05;;;17.30;99.90;;;;;;4592495;19;20026;-79
2023/12/02 02:32:40;;;;;;;7.85;5.30;;;17.30;99.90;;;;;;4593272;19;20036;-79
2023/12/02 02:34:14;;;;;;;7.75;5.32;;;17.30;99.90;;;;;;4592961;19;20073;-79
2023/12/02 02:35:48;;;;;;;8.63;5.50;;;17.30;99.90;;;;;;4592931;19;20010;-79
2023/12/02 02:37:23;;;;;;;6.18;4.50;;;17.30;99.90;;;;;;4593145;19;20006;-79
2023/12/02 02:38:57;;;;;;;8.27;5.47;;;17.30;99.90;;;;;;4592909;19;20074;-79
2023/12/02 02:40:31;;;;;;;6.93;4.90;;;17.30;99.90;;;;;;4592700;19;20452;-79
2023/12/02 02:42:06;;;;;;;7.07;5.00;;;17.30;99.90;;;;;;4593302;19;20077;-79
2023/12/02 02:43:45;;;;;;;6.43;4.65;;;17.40;99.90;;;;;;4592123;19;20003;-79
2023/12/02 02:45:19;;;;;;;6.45;4.53;;;17.30;99.90;;;;;;4592734;19;20003;-79
2023/12/02 02:46:54;;;;;;;6.22;5.00;;;17.30;99.90;;;;;;4591697;19;20071;-79
2023/12/02 02:48:28;;;;;;;7.65;5.38;;;17.40;99.90;;;;;;4592322;19;20032;-79
2023/12/02 02:50:02;;;;;;;7.15;5.00;;;17.40;99.90;;;;;;4592632;19;20482;-79
2023/12/02 02:51:38;;;;;;;7.72;5.10;;;17.40;99.90;;;;;;4591349;19;20006;-79
2023/12/02 02:53:13;;;;;;;6.43;4.60;;;17.40;99.90;;;;;;4592537;19;20070;-79
2023/12/02 02:54:47;;;;;;;6.95;5.05;;;17.40;99.90;;;;;;4592830;19;20007;-79
2023/12/02 02:56:22;;;;;;;6.85;4.78;;;17.40;99.90;;;;;;4593082;19;20440;-79
2023/12/02 02:57:57;;;;;;;7.18;5.00;;;17.50;99.90;;;;;;4592798;19;20414;-79
2023/12/02 02:59:30;;;;;;;6.68;5.22;;;17.40;99.90;;;;;;4592434;19;20021;-79
2023/12/02 03:01:06;;;;;;;7.53;5.20;;;17.40;99.90;;;;;;4591710;19;20010;-79
2023/12/02 03:02:40;;;;;;;7.85;5.45;;;17.50;99.90;;;;;;4590760;19;20011;-79
2023/12/02 03:04:15;;;;;;;7.72;5.65;;;17.50;99.90;;;;;;4590969;19;20007;-79
2023/12/02 03:05:51;;;;;;;6.60;4.63;;;17.50;99.90;;;;;;4592319;19;20010;-79
2023/12/02 03:07:25;;;;;;;5.75;4.28;;;17.50;99.90;;;;;;4592355;19;20002;-79
2023/12/02 03:09:00;;;;;;;7.47;4.95;;;17.40;99.90;;;;;;4592306;19;20073;-79
2023/12/02 03:10:36;;;;;;;7.32;5.07;;;17.40;99.90;;;;;;4591590;19;20015;-79
2023/12/02 03:12:11;;;;;;;6.28;4.25;;;17.40;99.90;;;;;;4590889;19;20014;-79
2023/12/02 03:13:45;;;;;;;6.43;4.38;;;17.40;99.90;;;;;;4590905;19;20445;-79
2023/12/02 03:15:20;;;;;;;6.68;4.35;;;17.40;99.90;;;;;;4592646;19;20029;-79
2023/12/02 03:16:54;;;;;;;6.25;4.47;;;17.40;99.90;;;;;;4592460;19;20002;-79
2023/12/02 03:18:28;;;;;;;5.70;4.20;;;17.40;99.90;;;;;;4592481;19;20004;-80
2023/12/02 03:20:05;;;;;;;6.32;4.50;;;17.40;99.90;;;;;;4592138;19;20006;-79
2023/12/02 03:21:40;;;;;;;7.40;4.90;;;17.40;99.90;;;;;;4592186;19;20021;-79
2023/12/02 03:23:16;;;;;;;5.57;4.40;;;17.40;99.90;;;;;;4591510;19;20110;-79
2023/12/02 03:24:51;;;;;;;6.35;4.38;;;17.40;99.90;;;;;;4590809;19;20003;-79
2023/12/02 03:26:26;;;;;;;6.28;4.40;;;17.40;99.90;;;;;;4591579;19;20003;-79
2023/12/02 03:28:00;;;;;;;7.25;4.90;;;17.40;99.90;;;;;;4592315;19;20003;-79
2023/12/02 03:29:35;;;;;;;6.78;4.63;;;17.40;99.90;;;;;;4591996;19;20009;-79
2023/12/02 03:31:09;;;;;;;7.38;4.68;;;17.50;99.90;;;;;;4591112;19;20485;-79
2023/12/02 03:32:44;;;;;;;6.20;4.25;;;17.50;99.90;;;;;;4592228;19;20003;-79
2023/12/02 03:34:19;;;;;;;6.20;4.03;;;17.50;99.90;;;;;;4592034;19;20002;-79
2023/12/02 03:35:53;;;;;;;6.22;4.75;;;17.50;99.90;;;;;;4591861;19;19994;-79
2023/12/02 03:37:26;;;;;;;5.78;4.20;;;17.50;99.90;;;;;;4592079;19;20037;-79
2023/12/02 03:39:02;;;;;;;6.18;4.65;;;17.50;99.90;;;;;;4591896;19;20085;-79
2023/12/02 03:40:36;;;;;;;6.43;4.15;;;17.50;99.90;;;;;;4591339;19;19994;-79
2023/12/02 03:42:10;;;;;;;6.38;4.72;;;17.50;99.90;;;;;;4591537;19;20002;-79
2023/12/02 03:43:45;;;;;;;6.78;4.60;;;17.50;99.90;;;;;;4591081;19;20307;-79
2023/12/02 03:45:21;;;;;;;7.53;5.72;;;17.50;99.90;;;;;;4591695;19;20010;-79
2023/12/02 03:46:55;;;;;;;6.43;4.70;;;17.50;99.90;;;;;;4590635;19;20360;-79
2023/12/02 03:48:30;;;;;;;7.10;5.30;;;17.50;99.90;;;;;;4591394;19;20002;-79
2023/12/02 03:50:05;;;;;;;6.60;5.00;;;17.50;99.90;;;;;;4591857;19;20002;-79
2023/12/02 03:51:39;;;;;;;6.93;4.85;;;17.60;99.90;;;;;;4591615;19;20491;-79
2023/12/02 03:53:14;;;;;;;6.45;4.20;;;17.50;99.90;;;;;;4592053;19;20071;-79
2023/12/02 03:54:48;;;;;;;6.60;4.72;;;17.50;99.90;;;;;;4591554;19;19998;-79
2023/12/02 03:56:22;;;;;;;5.88;4.00;;;17.50;99.90;;;;;;4591488;19;20003;-79
2023/12/02 03:57:58;;;;;;;6.30;4.50;;;17.50;99.90;;;;;;4591872;19;20069;-79
2023/12/02 03:59:32;;;;;;;7.18;4.68;;;17.50;99.90;;;;;;4591739;19;20026;-79
2023/12/02 04:01:06;;;;;;;5.47;4.53;;;17.50;99.90;;;;;;4590527;19;20003;-79
2023/12/02 04:02:42;;;;;;;6.70;4.63;;;17.50;99.90;;;;;;4591609;19;20002;-79
2023/12/02 04:04:16;;;;;;;5.38;4.30;;;17.50;99.90;;;;;;4591453;19;19998;-79
2023/12/02 04:05:51;;;;;;;5.03;3.78;;;17.50;99.90;;;;;;4591451;19;20007;-79
2023/12/02 04:07:27;;;;;;;5.53;3.70;;;17.50;99.90;;;;;;4591480;19;20103;-79
2023/12/02 04:09:01;;;;;;;9.30;4.55;;;17.50;99.90;;;;;;4591604;19;20440;-79
2023/12/02 04:10:35;;;;;;;6.03;4.28;;;17.50;99.90;;;;;;4590437;19;20018;-79
2023/12/02 04:12:10;;;;;;;5.00;3.72;;;17.50;99.90;;;;;;4591246;19;20001;-79
2023/12/02 04:13:45;;;;;;;5.28;4.28;;;17.50;99.90;;;;;;4591194;19;20013;-79
2023/12/02 04:15:19;;;;;;;5.88;4.38;;;17.50;99.90;;;;;;4591478;19;20002;-79
2023/12/02 04:16:55;;;;;;;5.40;3.95;;;17.50;99.90;;;;;;4595834;19;20030;-79
2023/12/02 04:18:29;;;;;;;5.22;4.05;;;17.50;99.90;;;;;;4596005;19;20006;-79
2023/12/02 04:20:14;;;;;;;5.68;4.38;;;17.50;99.90;;;;;;4595744;19;20038;-79
2023/12/02 04:21:51;;;;;;;6.03;4.18;;;17.50;99.90;;;;;;4594742;19;20430;-79
2023/12/02 04:23:25;;;;;;;5.25;3.83;;;17.50;99.90;;;;;;4594337;19;20442;-79
2023/12/02 04:24:59;;;;;;;5.50;3.97;;;17.60;99.90;;;;;;4595708;19;20001;-79
2023/12/02 04:26:34;;;;;;;5.20;3.85;;;17.60;99.90;;;;;;4595483;19;20011;-79
2023/12/02 04:28:09;;;;;;;5.88;4.38;;;17.60;99.90;;;;;;4595633;19;20005;-79
2023/12/02 04:29:44;;;;;;;5.32;4.25;;;17.60;99.90;;;;;;4595556;19;20011;-79
2023/12/02 04:31:20;;;;;;;7.03;4.53;;;17.60;99.90;;;;;;4594426;19;20074;-79
2023/12/02 04:32:55;;;;;;;6.25;4.53;;;17.60;99.90;;;;;;4595799;19;20017;-79
2023/12/02 04:34:29;;;;;;;5.78;4.28;;;17.60;99.90;;;;;;4595702;19;20025;-79
2023/12/02 04:36:04;;;;;;;5.25;3.60;;;17.60;99.90;;;;;;4594154;19;20013;-79
2023/12/02 04:37:38;;;;;;;6.25;4.22;;;17.60;99.90;;;;;;4595058;19;19998;-79
2023/12/02 04:39:12;;;;;;;5.63;3.70;;;17.60;99.90;;;;;;4595614;19;20357;-79
2023/12/02 04:40:48;;;;;;;5.03;3.72;;;17.50;99.90;;;;;;4594602;19;20013;-79
2023/12/02 04:42:23;;;;;;;6.35;3.65;;;17.50;99.90;;;;;;4595549;19;20071;-79
2023/12/02 04:43:57;;;;;;;5.10;3.92;;;17.50;99.90;;;;;;4592681;19;20311;-79
2023/12/02 04:45:32;;;;;;;5.35;3.28;;;17.50;99.90;;;;;;4594970;19;20004;-79
2023/12/02 04:47:06;;;;;;;6.53;4.03;;;17.70;99.90;;;;;;4595444;19;20082;-79
2023/12/02 04:48:41;;;;;;;5.40;3.55;;;17.70;99.90;;;;;;4593819;19;20062;-79
2023/12/02 04:50:16;;;;;;;4.80;3.30;;;17.80;99.90;;;;;;4594577;19;20014;-79
2023/12/02 04:51:50;;;;;;;6.82;4.00;;;18.00;99.90;;;;;;4593614;19;20010;-77
2023/12/02 04:53:24;;;;;;;5.70;3.97;;;18.20;99.90;;;;;;4594615;19;19999;-77
2023/12/02 04:54:59;;;;;;;5.25;3.42;;;18.40;99.90;;;;;;4594094;19;20006;-78
2023/12/02 04:56:33;;;;;;;4.40;3.08;;;18.40;99.90;;;;;;4594886;19;20014;-76
2023/12/02 04:58:07;;;;;;;5.05;3.45;;;18.50;99.90;;;;;;4595013;19;20017;-74
2023/12/02 04:59:43;;;;;;;6.35;3.58;;;18.50;99.90;;;;;;4594960;19;20082;-78
2023/12/02 05:01:18;;;;;;;5.47;3.97;;;18.40;99.90;;;;;;4593598;19;20314;-77
2023/12/02 05:02:52;;;;;;;7.20;4.35;;;18.30;99.90;;;;;;4594779;19;20009;-77
2023/12/02 05:04:27;;;;;;;5.90;3.72;;;18.20;99.90;;;;;;4594857;19;20006;-77
2023/12/02 05:06:02;;;;;;;7.97;4.00;;;18.10;99.90;;;;;;4594704;19;20006;-77
2023/12/02 05:07:36;;;;;;;6.40;2.97;;;18.10;99.90;;;;;;4594986;19;20082;-77
2023/12/02 05:09:12;;;;;;;19.80;14.55;;;17.80;99.90;;;;;;4595056;19;20022;-76
2023/12/02 05:10:46;;;;;;;19.80;14.30;;;17.20;95.80;;;;;;4593592;19;20011;-77
2023/12/02 05:12:22;;;;;;;19.52;14.95;;;16.80;94.60;;;;;;4594729;19;20026;-77
2023/12/02 05:13:57;;;;;;;17.13;14.07;;;16.50;94.20;;;;;;4593411;19;20007;-77
2023/12/02 05:15:32;;;;;;;19.40;15.20;;;16.30;93.90;;;;;;4594244;19;20430;-77
2023/12/02 05:17:08;;;;;;;20.10;15.52;;;16.20;93.70;;;;;;4594756;19;20014;-77
2023/12/02 05:18:45;;;;;;;23.27;16.77;;;16.10;93.40;;;;;;4593681;19;20016;-77
2023/12/02 05:20:20;;;;;;;24.80;17.90;;;16.10;93.20;;;;;;4593895;19;20015;-77
2023/12/02 05:21:55;;;;;;;23.80;16.75;;;16.00;93.20;;;;;;4594725;19;20320;-78
2023/12/02 05:23:32;;;;;;;26.08;18.90;;;16.00;92.80;;;;;;4593853;19;20073;-78
2023/12/02 05:25:06;;;;;;;23.70;18.92;;;15.90;92.60;;;;;;4594379;19;20018;-77
2023/12/02 05:26:41;;;;;;;26.42;19.08;;;15.90;92.50;;;;;;4594600;19;19999;-77
2023/12/02 05:28:18;;;;;;;22.77;17.10;;;15.90;92.30;;;;;;4593145;19;20361;-77
2023/12/02 05:29:52;;;;;;;25.77;19.13;;;15.80;92.20;;;;;;4594232;19;20010;-77
2023/12/02 05:31:27;;;;;;;25.58;18.60;;;15.80;92.00;;;;;;4592791;19;20006;-77
2023/12/02 05:33:03;;;;;;;26.48;18.10;;;15.80;92.00;;;;;;4594319;19;20073;-77
2023/12/02 05:34:37;;;;;;;25.98;18.55;;;15.70;91.80;;;;;;4594381;19;20013;-77
2023/12/02 05:36:12;;;;;;;26.02;19.42;;;15.70;91.80;;;;;;4594148;19;20327;-77
2023/12/02 05:37:47;;;;;;;26.23;19.42;;;15.70;91.70;;;;;;4594191;19;20006;-76
2023/12/02 05:39:22;;;;;;;24.75;18.02;;;15.60;91.60;;;;;;4594033;19;20002;-77
2023/12/02 05:40:56;;;;;;;26.77;18.77;;;15.60;91.50;;;;;;4593153;19;20011;-76
2023/12/02 05:42:31;;;;;;;27.00;19.67;;;15.60;91.50;;;;;;4594016;19;20006;-76
2023/12/02 05:44:05;;;;;;;27.85;19.23;;;15.50;91.40;;;;;;4592683;19;20318;-77
2023/12/02 05:45:39;;;;;;;27.27;19.60;;;15.50;91.40;;;;;;4593947;19;20019;-77
2023/12/02 05:47:15;;;;;;;26.77;18.30;;;15.50;91.30;;;;;;4593994;19;20006;-76
2023/12/02 05:48:50;;;;;;;26.65;19.50;;;15.50;91.30;;;;;;4593919;19;20005;-76
2023/12/02 05:50:24;;;;;;;28.60;19.75;;;15.40;91.20;;;;;;4593454;19;20323;-76
2023/12/02 05:52:00;;;;;;;26.08;19.08;;;15.40;91.10;;;;;;4592606;19;20011;-76
2023/12/02 05:53:35;;;;;;;26.80;18.65;;;15.40;91.10;;;;;;4593617;19;20010;-76
2023/12/02 05:55:09;;;;;;;28.80;20.67;;;15.30;91.00;;;;;;4593701;19;20425;-76
2023/12/02 05:56:45;;;;;;;26.15;19.38;;;15.30;91.00;;;;;;4594024;19;20007;-76
2023/12/02 05:58:19;;;;;;;26.48;18.40;;;15.30;90.90;;;;;;4593668;19;20074;-76
2023/12/02 05:59:53;;;;;;;26.17;18.92;;;15.30;90.90;;;;;;4593619;19;20027;-77
2023/12/02 06:01:28;;;;;;;24.58;18.23;;;15.30;91.00;;;;;;4593102;19;20007;-74
2023/12/02 06:03:03;;;;;;;26.08;18.45;;;15.20;90.90;;;;;;4593442;19;20006;-76
2023/12/02 06:04:38;;;;;;;26.58;17.52;;;15.20;90.80;;;;;;4593511;19;20021;-76
2023/12/02 06:06:14;;;;;;;23.50;17.77;;;15.20;90.80;;;;;;4593821;19;20433;-76
2023/12/02 06:07:48;;;;;;;23.23;17.23;;;15.30;90.90;;;;;;4593729;19;20422;-76
2023/12/02 06:09:23;;;;;;;22.75;17.02;;;15.30;90.90;;;;;;4592146;19;20006;-76
2023/12/02 06:11:01;;;;;;;25.65;18.45;;;15.40;90.90;;;;;;4592336;19;20038;-76
2023/12/02 06:12:36;;;;;;;26.15;18.40;;;15.60;90.80;;;;;;4593490;19;20007;-76
2023/12/02 06:14:10;;;;;;;24.80;17.50;;;15.70;90.60;;;;;;4593376;19;20013;-77
2023/12/02 06:15:46;;;;;;;24.73;17.50;;;15.90;90.40;;;;;;4593391;19;20010;-77
2023/12/02 06:17:20;;;;;;;28.13;19.77;;;15.90;90.20;;;;;;4591857;19;20003;-77
2023/12/02 06:18:54;;;;;;;27.17;18.23;;;16.10;90.00;;;;;;4592872;19;20003;-77
2023/12/02 06:20:29;;;;;;;28.98;20.77;;;16.20;89.80;;;;;;4593229;19;20342;-77
2023/12/02 06:22:04;;;;;;;24.50;19.05;;;16.30;89.40;;;;;;4593164;19;20437;-77
2023/12/02 06:23:39;;;;;;;26.60;18.98;;;15.50;91.50;;;;;;4592406;19;19999;-77
2023/12/02 06:25:15;;;;;;;24.70;19.20;;;14.30;92.30;;;;;;4593441;19;20452;-77
2023/12/02 06:26:49;;;;;;;24.80;18.83;;;13.40;93.70;;;;;;4593344;19;20002;-76
2023/12/02 06:28:23;;;;;;;25.23;18.23;;;12.70;94.50;;;;;;4593062;19;19999;-76
2023/12/02 06:29:59;;;;;;;25.20;17.97;;;12.10;95.20;;;;;;4593370;19;20428;-77
2023/12/02 06:31:35;;;;;;;27.33;19.87;;;11.70;95.80;;;;;;4591725;19;20014;-75
2023/12/02 06:33:09;;;;;;;26.80;19.13;;;11.40;97.20;;;;;;4593145;19;20026;-77
2023/12/02 06:34:46;;;;;;;25.83;17.97;;;11.20;97.50;;;;;;4592872;19;20393;-76
2023/12/02 06:36:21;;;;;;;24.40;17.70;;;10.90;97.60;;;;;;4593119;19;20385;-76
2023/12/02 06:37:56;;;;;;;23.87;17.13;;;10.70;98.00;;;;;;4592781;19;20722;-76
2023/12/02 06:39:31;;;;;;;26.20;16.97;;;10.50;98.60;;;;;;4590557;19;20387;-76
2023/12/02 06:41:06;;;;;;;22.97;16.43;;;10.40;99.20;;;;;;4591895;19;20453;-76
2023/12/02 06:42:40;;;;;;;27.70;18.33;;;10.30;99.10;;;;;;4592953;19;20462;-76
2023/12/02 06:44:17;;;;;;;28.03;18.97;;;10.20;99.20;;;;;;4591864;19;20397;-76
2023/12/02 06:45:51;;;;;;;25.77;17.17;;;10.10;99.50;;;;;;4593010;19;20408;-76
2023/12/02 06:47:28;;;;;;;26.20;17.37;;;10.10;99.60;;;;;;4592917;19;20822;-76
2023/12/02 06:49:03;;;;;;;25.70;17.57;;;10.10;99.90;;;;;;4592727;19;20392;-77
2023/12/02 06:50:38;;;;;;;24.90;16.57;;;10.00;99.80;;;;;;4590841;19;20441;-77
2023/12/02 06:52:12;;;;;;;25.17;16.93;;;10.00;99.80;;;;;;4591458;19;20447;-77
2023/12/02 06:53:47;;;;;;;27.07;17.90;;;9.90;99.60;;;;;;4592563;19;20407;-76
2023/12/02 06:55:22;;;;;;;25.37;16.90;;;9.90;99.50;;;;;;4592524;19;20389;-76
2023/12/02 06:56:56;;;;;;;26.47;17.77;;;9.90;99.50;;;;;;4592272;19;20429;-77
2023/12/02 06:58:31;;;;;;;25.57;17.33;;;9.90;99.90;;;;;;4591075;19;20463;-76
2023/12/02 07:00:06;;;;;;;26.27;18.53;;;9.90;99.40;;;;;;4592031;19;20419;-76
2023/12/02 07:01:41;;;;;;;27.13;19.07;;;9.80;99.80;;;;;;4592669;19;20533;-85
2023/12/02 07:03:16;;;;;;;25.47;18.03;;;9.80;99.80;;;;;;4591922;19;20509;-78
2023/12/02 07:04:51;;;;;;;26.57;17.43;;;9.80;99.60;;;;;;4590926;19;20542;-80
2023/12/02 07:06:25;;;;;;;24.93;18.30;;;9.80;99.90;;;;;;4591913;19;20397;-79
2023/12/02 07:08:01;;;;;;;27.07;18.37;;;9.80;99.40;;;;;;4591189;19;20409;-79
2023/12/02 07:09:35;;;;;;;25.83;16.77;;;9.80;99.80;;;;;;4591169;19;20678;-79
2023/12/02 07:11:09;;;;;;;38.93;25.87;;;9.80;99.80;;;;;;4590699;19;20513;-79
2023/12/02 07:12:45;;;;;;;472.03;294.30;;;9.70;99.50;;;;;;4592088;19;20955;-79
2023/12/02 07:14:19;;;;;;;369.03;228.90;;;9.70;99.70;;;;;;4592082;19;20428;-79
2023/12/02 07:15:54;;;;;;;404.13;257.80;;;9.80;98.70;;;;;;4591963;19;20389;-79
2023/12/02 07:17:30;;;;;;;208.23;129.53;;;10.40;98.10;;;;;;4592090;19;20501;-81
2023/12/02 07:19:04;;;;;;;100.93;62.57;;;10.90;97.30;;;;;;4590917;19;20477;-81
2023/12/02 07:20:39;;;;;;;55.63;36.37;;;11.30;96.70;;;;;;4590136;19;20497;-79
2023/12/02 07:22:14;;;;;;;39.40;25.80;;;11.80;96.10;;;;;;4592367;19;20421;-80
2023/12/02 07:23:48;;;;;;;43.70;30.90;;;12.00;95.50;;;;;;4589760;19;20409;-80
2023/12/02 07:25:22;;;;;;;34.23;25.87;;;12.30;95.10;;;;;;4590856;19;20728;-81
2023/12/02 07:26:57;;;;;;;28.47;19.33;;;12.60;94.70;;;;;;4591650;19;20478;-78
2023/12/02 07:28:32;;;;;;;28.87;21.33;;;12.90;94.30;;;;;;4592096;19;20738;-76
2023/12/02 07:30:09;;;;;;;29.53;20.97;;;13.10;94.00;;;;;;4591971;19;20437;-76
2023/12/02 07:31:45;;;;;;;31.73;21.13;;;13.30;93.70;;;;;;4591963;19;20010;-77
2023/12/02 07:33:20;;;;;;;32.77;20.97;;;13.40;93.40;;;;;;4592019;19;20003;-77
2023/12/02 07:34:53;;;;;;;34.10;22.93;;;13.60;93.30;;;;;;4590855;19;20021;-76
2023/12/02 07:36:29;;;;;;;33.27;21.83;;;13.70;93.00;;;;;;4591449;19;20026;-77
2023/12/02 07:38:04;;;;;;;33.87;23.13;;;13.80;92.80;;;;;;4590760;19;19998;-76
2023/12/02 07:39:38;;;;;;;33.17;22.43;;;13.90;92.60;;;;;;4591406;19;20359;-76
2023/12/02 07:41:14;;;;;;;28.17;20.50;;;14.00;92.40;;;;;;4589943;19;20006;-77
2023/12/02 07:42:49;;;;;;;31.87;20.60;;;14.10;92.30;;;;;;4591671;19;20023;-78
2023/12/02 07:44:22;;;;;;;28.93;21.50;;;14.20;92.10;;;;;;4591905;19;19999;-78
2023/12/02 07:45:58;;;;;;;33.23;22.93;;;14.20;92.00;;;;;;4590884;19;20377;-76
2023/12/02 07:47:32;;;;;;;33.27;22.93;;;14.30;91.90;;;;;;4591552;19;20003;-76
2023/12/02 07:49:06;;;;;;;32.27;21.47;;;14.30;91.80;;;;;;4591600;19;20013;-80
2023/12/02 07:50:41;;;;;;;32.57;20.77;;;14.30;91.60;;;;;;4591930;19;20002;-79
2023/12/02 07:52:16;;;;;;;47.20;32.07;;;14.40;91.60;;;;;;4596524;19;19998;-78
2023/12/02 07:53:50;;;;;;;59.83;39.45;;;14.40;91.60;;;;;;4596183;19;20019;-79
2023/12/02 07:55:26;;;;;;;68.25;42.72;;;14.40;91.50;;;;;;4596764;19;20003;-79
2023/12/02 07:57:00;;;;;;;58.78;33.88;;;14.50;91.50;;;;;;4594812;19;20003;-79
2023/12/02 07:58:34;;;;;;;51.20;31.70;;;14.50;91.40;;;;;;4595029;19;20029;-80
2023/12/02 08:00:10;;;;;;;46.05;31.48;;;14.50;91.30;;;;;;4595827;19;20016;-80
2023/12/02 08:01:44;;;;;;;38.50;25.95;;;14.50;91.20;;;;;;4594743;19;20011;-79
2023/12/02 08:03:18;;;;;;;29.88;21.50;;;14.50;91.20;;;;;;4593990;19;20002;-80
2023/12/02 08:04:54;;;;;;;31.38;22.25;;;14.50;91.20;;;;;;4594665;19;20006;-79
2023/12/02 08:06:28;;;;;;;32.67;20.98;;;14.50;91.10;;;;;;4595888;19;20032;-79
2023/12/02 08:08:03;;;;;;;34.42;23.27;;;14.60;91.10;;;;;;4594908;19;20003;-80
2023/12/02 08:09:41;;;;;;;31.30;21.65;;;14.60;91.00;;;;;;4595572;19;20408;-80
2023/12/02 08:11:15;;;;;;;37.47;24.00;;;14.60;90.90;;;;;;4594434;19;20015;-78
2023/12/02 08:12:49;;;;;;;36.22;24.48;;;14.60;90.90;;;;;;4595782;19;20023;-78
2023/12/02 08:14:25;;;;;;;30.65;22.30;;;14.60;90.80;;;;;;4595896;19;20003;-77
2023/12/02 08:15:59;;;;;;;32.60;23.45;;;14.60;90.70;;;;;;4596140;19;20021;-78
2023/12/02 08:17:34;;;;;;;44.28;32.35;;;14.60;90.70;;;;;;4594463;19;20005;-79